sensor_id;sensor_type;location;lat;lon;timestamp;pressure;altitude;pressure_sealevel;temperature;humidity
74594;BME280;63097;51.872;4.460;2023-07-09T00:01:38;101808.16;;;22.81;84.96
74594;BME280;63097;51.872;4.460;2023-07-09T00:04:03;101798.59;;;22.77;84.34
74594;BME280;63097;51.872;4.460;2023-07-09T00:06:29;101801.06;;;22.65;84.83
74594;BME280;63097;51.872;4.460;2023-07-09T00:08:54;101805.16;;;22.59;85.08
74594;BME280;63097;51.872;4.460;2023-07-09T00:11:20;101817.09;;;22.56;85.72
74594;BME280;63097;51.872;4.460;2023-07-09T00:13:45;101819.16;;;22.51;85.85
74594;BME280;63097;51.872;4.460;2023-07-09T00:16:13;101817.47;;;22.50;86.30
74594;BME280;63097;51.872;4.460;2023-07-09T00:18:39;101815.31;;;22.42;85.86
74594;BME280;63097;51.872;4.460;2023-07-09T00:21:04;101822.78;;;22.56;85.66
74594;BME280;63097;51.872;4.460;2023-07-09T00:23:30;101823.69;;;22.52;85.76
74594;BME280;63097;51.872;4.460;2023-07-09T00:25:55;101822.81;;;22.51;85.74
74594;BME280;63097;51.872;4.460;2023-07-09T00:28:20;101833.00;;;22.71;84.35
74594;BME280;63097;51.872;4.460;2023-07-09T00:30:47;101830.94;;;22.76;83.23
74594;BME280;63097;51.872;4.460;2023-07-09T00:33:14;101826.22;;;22.85;82.86
74594;BME280;63097;51.872;4.460;2023-07-09T00:35:44;101827.72;;;22.96;81.56
74594;BME280;63097;51.872;4.460;2023-07-09T00:38:20;101819.75;;;22.98;81.32
74594;BME280;63097;51.872;4.460;2023-07-09T00:41:00;101832.31;;;22.79;82.39
74594;BME280;63097;51.872;4.460;2023-07-09T00:43:31;101822.72;;;22.75;83.55
74594;BME280;63097;51.872;4.460;2023-07-09T00:48:50;101808.13;;;22.49;84.12
74594;BME280;63097;51.872;4.460;2023-07-09T00:51:18;101815.53;;;22.45;84.35
74594;BME280;63097;51.872;4.460;2023-07-09T00:53:45;101817.56;;;22.45;83.82
74594;BME280;63097;51.872;4.460;2023-07-09T00:56:31;101811.97;;;22.40;84.91
74594;BME280;63097;51.872;4.460;2023-07-09T00:59:01;101830.97;;;22.39;84.52
74594;BME280;63097;51.872;4.460;2023-07-09T01:01:29;101821.94;;;22.37;85.03
74594;BME280;63097;51.872;4.460;2023-07-09T01:03:57;101825.16;;;22.31;85.19
74594;BME280;63097;51.872;4.460;2023-07-09T01:06:27;101823.25;;;22.26;85.49
74594;BME280;63097;51.872;4.460;2023-07-09T01:08:55;101818.78;;;22.20;86.04
74594;BME280;63097;51.872;4.460;2023-07-09T01:11:22;101815.50;;;22.13;86.10
74594;BME280;63097;51.872;4.460;2023-07-09T01:13:54;101829.44;;;22.10;85.91
74594;BME280;63097;51.872;4.460;2023-07-09T01:16:23;101840.16;;;22.13;85.80
74594;BME280;63097;51.872;4.460;2023-07-09T01:18:51;101833.38;;;22.14;86.67
74594;BME280;63097;51.872;4.460;2023-07-09T01:21:16;101845.16;;;22.02;87.05
74594;BME280;63097;51.872;4.460;2023-07-09T01:23:43;101842.63;;;22.01;86.83
74594;BME280;63097;51.872;4.460;2023-07-09T01:26:15;101853.66;;;22.02;87.09
74594;BME280;63097;51.872;4.460;2023-07-09T01:28:41;101848.88;;;21.97;86.70
74594;BME280;63097;51.872;4.460;2023-07-09T01:31:06;101854.25;;;21.99;87.17
74594;BME280;63097;51.872;4.460;2023-07-09T01:33:32;101845.00;;;21.93;87.36
74594;BME280;63097;51.872;4.460;2023-07-09T01:35:57;101850.19;;;21.86;87.20
74594;BME280;63097;51.872;4.460;2023-07-09T01:38:22;101845.91;;;21.89;87.43
74594;BME280;63097;51.872;4.460;2023-07-09T01:40:47;101842.81;;;21.85;87.73
74594;BME280;63097;51.872;4.460;2023-07-09T01:43:13;101844.81;;;21.85;87.44
74594;BME280;63097;51.872;4.460;2023-07-09T01:45:38;101853.66;;;21.78;87.25
74594;BME280;63097;51.872;4.460;2023-07-09T01:48:04;101855.72;;;21.73;87.68
74594;BME280;63097;51.872;4.460;2023-07-09T01:50:29;101843.84;;;21.71;88.20
74594;BME280;63097;51.872;4.460;2023-07-09T01:52:55;101844.22;;;21.64;88.28
74594;BME280;63097;51.872;4.460;2023-07-09T01:55:20;101841.75;;;21.58;88.63
74594;BME280;63097;51.872;4.460;2023-07-09T01:57:46;101849.69;;;21.56;88.36
74594;BME280;63097;51.872;4.460;2023-07-09T02:00:15;101849.44;;;21.52;88.57
74594;BME280;63097;51.872;4.460;2023-07-09T02:02:42;101850.63;;;21.51;88.15
74594;BME280;63097;51.872;4.460;2023-07-09T02:05:07;101849.44;;;21.52;88.95
74594;BME280;63097;51.872;4.460;2023-07-09T02:07:33;101850.84;;;21.55;88.39
74594;BME280;63097;51.872;4.460;2023-07-09T02:09:58;101847.72;;;21.56;88.15
74594;BME280;63097;51.872;4.460;2023-07-09T02:12:24;101843.25;;;21.50;88.66
74594;BME280;63097;51.872;4.460;2023-07-09T02:14:49;101848.13;;;21.45;89.43
74594;BME280;63097;51.872;4.460;2023-07-09T02:17:15;101843.38;;;21.40;89.28
74594;BME280;63097;51.872;4.460;2023-07-09T02:19:41;101842.84;;;21.38;89.56
74594;BME280;63097;51.872;4.460;2023-07-09T02:22:07;101836.69;;;21.31;89.78
74594;BME280;63097;51.872;4.460;2023-07-09T02:24:33;101837.81;;;21.30;90.02
74594;BME280;63097;51.872;4.460;2023-07-09T02:27:01;101839.75;;;21.35;89.79
74594;BME280;63097;51.872;4.460;2023-07-09T02:29:29;101844.56;;;21.34;89.21
74594;BME280;63097;51.872;4.460;2023-07-09T02:31:56;101845.97;;;21.37;89.24
74594;BME280;63097;51.872;4.460;2023-07-09T02:34:22;101841.75;;;21.34;89.92
74594;BME280;63097;51.872;4.460;2023-07-09T02:36:47;101835.78;;;21.36;89.30
74594;BME280;63097;51.872;4.460;2023-07-09T02:39:14;101843.72;;;21.34;89.78
74594;BME280;63097;51.872;4.460;2023-07-09T02:41:40;101837.25;;;21.33;89.54
74594;BME280;63097;51.872;4.460;2023-07-09T02:44:05;101846.00;;;21.32;89.86
74594;BME280;63097;51.872;4.460;2023-07-09T02:46:31;101849.38;;;21.34;90.64
74594;BME280;63097;51.872;4.460;2023-07-09T02:48:56;101855.41;;;21.74;88.30
74594;BME280;63097;51.872;4.460;2023-07-09T02:51:22;101853.53;;;21.65;88.63
74594;BME280;63097;51.872;4.460;2023-07-09T02:53:47;101849.56;;;21.66;88.50
74594;BME280;63097;51.872;4.460;2023-07-09T02:56:13;101855.59;;;21.59;89.66
74594;BME280;63097;51.872;4.460;2023-07-09T02:58:38;101854.00;;;21.53;88.98
74594;BME280;63097;51.872;4.460;2023-07-09T03:01:03;101856.31;;;21.46;88.89
74594;BME280;63097;51.872;4.460;2023-07-09T03:03:29;101852.19;;;21.39;89.80
74594;BME280;63097;51.872;4.460;2023-07-09T03:05:54;101857.84;;;21.39;89.27
74594;BME280;63097;51.872;4.460;2023-07-09T03:08:19;101855.84;;;21.39;89.54
74594;BME280;63097;51.872;4.460;2023-07-09T03:10:45;101864.09;;;21.36;90.34
74594;BME280;63097;51.872;4.460;2023-07-09T03:13:10;101858.06;;;21.66;86.82
74594;BME280;63097;51.872;4.460;2023-07-09T03:15:35;101864.63;;;21.61;87.19
74594;BME280;63097;51.872;4.460;2023-07-09T03:18:01;101867.47;;;21.61;87.80
74594;BME280;63097;51.872;4.460;2023-07-09T03:20:26;101874.13;;;21.70;88.09
74594;BME280;63097;51.872;4.460;2023-07-09T03:22:52;101872.72;;;21.73;87.15
74594;BME280;63097;51.872;4.460;2023-07-09T03:25:18;101882.06;;;21.73;88.03
74594;BME280;63097;51.872;4.460;2023-07-09T03:27:43;101877.75;;;21.76;87.60
74594;BME280;63097;51.872;4.460;2023-07-09T03:30:09;101882.63;;;21.70;87.22
74594;BME280;63097;51.872;4.460;2023-07-09T03:32:34;101884.94;;;21.68;87.97
74594;BME280;63097;51.872;4.460;2023-07-09T03:34:59;101872.47;;;21.69;87.38
74594;BME280;63097;51.872;4.460;2023-07-09T03:37:25;101888.47;;;21.84;87.05
74594;BME280;63097;51.872;4.460;2023-07-09T03:39:50;101882.94;;;21.92;87.03
74594;BME280;63097;51.872;4.460;2023-07-09T03:42:16;101868.47;;;21.94;85.80
74594;BME280;63097;51.872;4.460;2023-07-09T03:44:41;101881.13;;;22.02;86.14
74594;BME280;63097;51.872;4.460;2023-07-09T03:47:07;101870.66;;;22.02;86.54
74594;BME280;63097;51.872;4.460;2023-07-09T03:49:33;101875.47;;;22.02;85.98
74594;BME280;63097;51.872;4.460;2023-07-09T03:51:58;101867.66;;;21.93;87.28
74594;BME280;63097;51.872;4.460;2023-07-09T03:54:24;101861.88;;;21.80;86.91
74594;BME280;63097;51.872;4.460;2023-07-09T03:56:49;101865.06;;;21.73;87.83
74594;BME280;63097;51.872;4.460;2023-07-09T03:59:15;101867.41;;;21.66;87.99
74594;BME280;63097;51.872;4.460;2023-07-09T04:01:40;101868.84;;;21.64;88.22
74594;BME280;63097;51.872;4.460;2023-07-09T04:04:05;101872.72;;;21.73;88.35
74594;BME280;63097;51.872;4.460;2023-07-09T04:06:31;101864.81;;;21.70;88.27
74594;BME280;63097;51.872;4.460;2023-07-09T04:08:56;101868.25;;;21.67;87.55
74594;BME280;63097;51.872;4.460;2023-07-09T04:11:21;101856.34;;;21.70;87.65
74594;BME280;63097;51.872;4.460;2023-07-09T04:13:47;101863.34;;;21.72;87.51
74594;BME280;63097;51.872;4.460;2023-07-09T04:16:12;101866.72;;;21.74;87.81
74594;BME280;63097;51.872;4.460;2023-07-09T04:18:37;101866.44;;;21.76;87.35
74594;BME280;63097;51.872;4.460;2023-07-09T04:21:03;101871.53;;;21.74;87.32
74594;BME280;63097;51.872;4.460;2023-07-09T04:23:28;101867.81;;;21.78;87.05
74594;BME280;63097;51.872;4.460;2023-07-09T04:25:53;101862.81;;;21.70;87.69
74594;BME280;63097;51.872;4.460;2023-07-09T04:28:19;101862.50;;;21.72;87.28
74594;BME280;63097;51.872;4.460;2023-07-09T04:30:48;101861.38;;;21.73;86.60
74594;BME280;63097;51.872;4.460;2023-07-09T04:33:15;101859.94;;;21.75;86.95
74594;BME280;63097;51.872;4.460;2023-07-09T04:35:40;101870.06;;;21.81;86.93
74594;BME280;63097;51.872;4.460;2023-07-09T04:38:05;101873.13;;;21.85;87.14
74594;BME280;63097;51.872;4.460;2023-07-09T04:40:31;101862.00;;;21.93;85.95
74594;BME280;63097;51.872;4.460;2023-07-09T04:42:56;101868.03;;;22.06;85.76
74594;BME280;63097;51.872;4.460;2023-07-09T04:45:21;101872.28;;;22.08;86.79
74594;BME280;63097;51.872;4.460;2023-07-09T04:47:47;101876.41;;;22.16;86.48
74594;BME280;63097;51.872;4.460;2023-07-09T04:50:12;101886.75;;;22.25;85.27
74594;BME280;63097;51.872;4.460;2023-07-09T04:52:37;101893.94;;;22.36;84.83
74594;BME280;63097;51.872;4.460;2023-07-09T04:55:03;101891.88;;;22.42;83.64
74594;BME280;63097;51.872;4.460;2023-07-09T04:57:28;101888.59;;;22.53;82.52
74594;BME280;63097;51.872;4.460;2023-07-09T04:59:54;101896.28;;;22.71;81.44
74594;BME280;63097;51.872;4.460;2023-07-09T05:02:19;101898.16;;;22.94;79.12
74594;BME280;63097;51.872;4.460;2023-07-09T05:04:45;101905.16;;;23.16;79.43
74594;BME280;63097;51.872;4.460;2023-07-09T05:07:10;101884.09;;;23.35;77.97
74594;BME280;63097;51.872;4.460;2023-07-09T05:09:35;101886.94;;;23.62;76.67
74594;BME280;63097;51.872;4.460;2023-07-09T05:12:01;101885.56;;;23.73;77.04
74594;BME280;63097;51.872;4.460;2023-07-09T05:14:27;101890.63;;;23.90;75.66
74594;BME280;63097;51.872;4.460;2023-07-09T05:16:53;101879.06;;;24.00;75.47
74594;BME280;63097;51.872;4.460;2023-07-09T05:19:18;101882.34;;;24.07;74.64
74594;BME280;63097;51.872;4.460;2023-07-09T05:21:43;101876.53;;;24.12;74.66
74594;BME280;63097;51.872;4.460;2023-07-09T05:24:09;101881.56;;;24.29;71.79
74594;BME280;63097;51.872;4.460;2023-07-09T05:26:34;101879.75;;;24.33;71.05
74594;BME280;63097;51.872;4.460;2023-07-09T05:28:59;101881.53;;;24.42;71.11
74594;BME280;63097;51.872;4.460;2023-07-09T05:31:25;101884.63;;;24.54;70.87
74594;BME280;63097;51.872;4.460;2023-07-09T05:33:50;101878.63;;;24.56;71.23
74594;BME280;63097;51.872;4.460;2023-07-09T05:36:15;101876.63;;;24.56;70.66
74594;BME280;63097;51.872;4.460;2023-07-09T05:38:44;101886.00;;;24.57;71.52
74594;BME280;63097;51.872;4.460;2023-07-09T05:41:10;101880.19;;;24.62;71.35
74594;BME280;63097;51.872;4.460;2023-07-09T05:43:35;101879.97;;;24.72;71.45
74594;BME280;63097;51.872;4.460;2023-07-09T05:46:02;101883.34;;;24.74;71.34
74594;BME280;63097;51.872;4.460;2023-07-09T05:48:27;101894.75;;;24.60;71.46
74594;BME280;63097;51.872;4.460;2023-07-09T05:50:54;101891.25;;;24.63;72.07
74594;BME280;63097;51.872;4.460;2023-07-09T05:53:19;101890.41;;;24.63;71.67
74594;BME280;63097;51.872;4.460;2023-07-09T05:55:44;101894.53;;;24.57;71.38
74594;BME280;63097;51.872;4.460;2023-07-09T05:58:10;101894.41;;;24.62;71.74
74594;BME280;63097;51.872;4.460;2023-07-09T06:00:35;101896.22;;;24.58;72.07
74594;BME280;63097;51.872;4.460;2023-07-09T06:03:00;101894.50;;;24.70;69.77
74594;BME280;63097;51.872;4.460;2023-07-09T06:05:26;101895.13;;;24.67;70.18
74594;BME280;63097;51.872;4.460;2023-07-09T06:07:51;101887.41;;;24.81;68.65
74594;BME280;63097;51.872;4.460;2023-07-09T06:10:16;101894.41;;;24.75;66.72
74594;BME280;63097;51.872;4.460;2023-07-09T06:12:42;101891.22;;;24.99;65.07
74594;BME280;63097;51.872;4.460;2023-07-09T06:15:07;101895.03;;;25.17;64.38
74594;BME280;63097;51.872;4.460;2023-07-09T06:17:33;101899.63;;;25.26;63.50
74594;BME280;63097;51.872;4.460;2023-07-09T06:19:58;101897.44;;;25.23;62.48
74594;BME280;63097;51.872;4.460;2023-07-09T06:22:23;101914.56;;;25.32;61.16
74594;BME280;63097;51.872;4.460;2023-07-09T06:24:49;101921.91;;;25.33;60.60
74594;BME280;63097;51.872;4.460;2023-07-09T06:27:14;101926.28;;;25.30;59.56
74594;BME280;63097;51.872;4.460;2023-07-09T06:29:39;101925.81;;;25.15;60.21
74594;BME280;63097;51.872;4.460;2023-07-09T06:32:05;101919.06;;;25.33;57.96
74594;BME280;63097;51.872;4.460;2023-07-09T06:34:31;101922.22;;;25.45;57.61
74594;BME280;63097;51.872;4.460;2023-07-09T06:36:56;101931.63;;;25.45;55.98
74594;BME280;63097;51.872;4.460;2023-07-09T06:39:22;101940.00;;;25.50;55.43
74594;BME280;63097;51.872;4.460;2023-07-09T06:41:48;101940.66;;;25.47;54.34
74594;BME280;63097;51.872;4.460;2023-07-09T06:44:13;101942.31;;;25.40;54.75
74594;BME280;63097;51.872;4.460;2023-07-09T06:46:39;101943.91;;;25.32;55.23
74594;BME280;63097;51.872;4.460;2023-07-09T06:49:04;101941.38;;;25.31;56.53
74594;BME280;63097;51.872;4.460;2023-07-09T06:51:29;101954.38;;;25.23;56.91
74594;BME280;63097;51.872;4.460;2023-07-09T06:53:54;101953.94;;;25.52;55.73
74594;BME280;63097;51.872;4.460;2023-07-09T06:56:20;101940.28;;;25.71;55.37
74594;BME280;63097;51.872;4.460;2023-07-09T06:58:45;101947.09;;;25.92;54.90
74594;BME280;63097;51.872;4.460;2023-07-09T07:01:10;101949.66;;;26.02;55.73
74594;BME280;63097;51.872;4.460;2023-07-09T07:03:36;101949.38;;;26.12;55.23
74594;BME280;63097;51.872;4.460;2023-07-09T07:06:01;101957.16;;;26.37;54.84
74594;BME280;63097;51.872;4.460;2023-07-09T07:08:27;101950.63;;;26.45;54.27
74594;BME280;63097;51.872;4.460;2023-07-09T07:10:57;101945.06;;;26.32;55.01
74594;BME280;63097;51.872;4.460;2023-07-09T07:13:23;101937.00;;;26.34;55.47
74594;BME280;63097;51.872;4.460;2023-07-09T07:15:49;101942.06;;;26.45;53.51
74594;BME280;63097;51.872;4.460;2023-07-09T07:18:14;101935.50;;;26.36;53.10
74594;BME280;63097;51.872;4.460;2023-07-09T07:20:39;101934.53;;;26.49;52.05
74594;BME280;63097;51.872;4.460;2023-07-09T07:23:04;101932.53;;;26.58;51.77
74594;BME280;63097;51.872;4.460;2023-07-09T07:25:32;101920.25;;;26.66;52.35
74594;BME280;63097;51.872;4.460;2023-07-09T07:27:57;101919.94;;;26.68;51.63
74594;BME280;63097;51.872;4.460;2023-07-09T07:30:23;101915.59;;;26.88;50.83
74594;BME280;63097;51.872;4.460;2023-07-09T07:32:48;101923.34;;;26.96;50.85
74594;BME280;63097;51.872;4.460;2023-07-09T07:35:14;101919.91;;;27.36;51.63
74594;BME280;63097;51.872;4.460;2023-07-09T07:37:42;101920.75;;;27.20;50.06
74594;BME280;63097;51.872;4.460;2023-07-09T07:40:09;101919.41;;;27.26;51.46
74594;BME280;63097;51.872;4.460;2023-07-09T07:42:35;101919.06;;;27.27;50.53
74594;BME280;63097;51.872;4.460;2023-07-09T07:45:01;101927.38;;;27.75;50.11
74594;BME280;63097;51.872;4.460;2023-07-09T07:47:26;101930.19;;;27.37;50.70
74594;BME280;63097;51.872;4.460;2023-07-09T07:49:52;101935.53;;;27.47;51.05
74594;BME280;63097;51.872;4.460;2023-07-09T07:52:17;101936.09;;;27.78;50.17
74594;BME280;63097;51.872;4.460;2023-07-09T07:54:42;101932.13;;;27.62;50.57
74594;BME280;63097;51.872;4.460;2023-07-09T07:57:07;101938.69;;;27.63;50.65
74594;BME280;63097;51.872;4.460;2023-07-09T07:59:33;101934.19;;;27.91;50.79
74594;BME280;63097;51.872;4.460;2023-07-09T08:01:58;101935.25;;;27.87;50.77
74594;BME280;63097;51.872;4.460;2023-07-09T08:04:24;101926.31;;;27.88;50.49
74594;BME280;63097;51.872;4.460;2023-07-09T08:06:49;101936.47;;;28.44;50.30
74594;BME280;63097;51.872;4.460;2023-07-09T08:09:15;101939.66;;;28.71;48.45
74594;BME280;63097;51.872;4.460;2023-07-09T08:11:41;101943.94;;;28.65;48.73
74594;BME280;63097;51.872;4.460;2023-07-09T08:14:06;101938.47;;;28.72;48.59
74594;BME280;63097;51.872;4.460;2023-07-09T08:16:31;101945.38;;;28.42;49.18
74594;BME280;63097;51.872;4.460;2023-07-09T08:18:56;101932.56;;;28.19;49.62
74594;BME280;63097;51.872;4.460;2023-07-09T08:21:22;101931.94;;;28.14;49.41
74594;BME280;63097;51.872;4.460;2023-07-09T08:23:47;101935.13;;;28.41;49.40
74594;BME280;63097;51.872;4.460;2023-07-09T08:26:12;101936.38;;;28.82;48.45
74594;BME280;63097;51.872;4.460;2023-07-09T08:28:38;101940.28;;;28.77;48.14
74594;BME280;63097;51.872;4.460;2023-07-09T08:31:03;101945.19;;;29.18;46.84
74594;BME280;63097;51.872;4.460;2023-07-09T08:33:29;101948.38;;;29.37;47.17
74594;BME280;63097;51.872;4.460;2023-07-09T08:35:55;101944.72;;;29.48;48.25
74594;BME280;63097;51.872;4.460;2023-07-09T08:38:21;101943.13;;;29.72;45.58
74594;BME280;63097;51.872;4.460;2023-07-09T08:40:59;101937.13;;;29.32;47.25
74594;BME280;63097;51.872;4.460;2023-07-09T08:46:52;101953.75;;;29.71;47.16
74594;BME280;63097;51.872;4.460;2023-07-09T08:49:30;101952.84;;;30.03;45.81
74594;BME280;63097;51.872;4.460;2023-07-09T08:51:58;101950.69;;;30.24;45.66
74594;BME280;63097;51.872;4.460;2023-07-09T08:54:33;101947.97;;;30.40;45.15
74594;BME280;63097;51.872;4.460;2023-07-09T08:57:17;101961.63;;;30.31;45.21
74594;BME280;63097;51.872;4.460;2023-07-09T08:59:44;101956.81;;;30.23;47.20
74594;BME280;63097;51.872;4.460;2023-07-09T09:02:21;101961.16;;;30.29;46.03
74594;BME280;63097;51.872;4.460;2023-07-09T09:04:50;101953.47;;;30.45;46.28
74594;BME280;63097;51.872;4.460;2023-07-09T09:07:40;101949.63;;;30.05;46.96
74594;BME280;63097;51.872;4.460;2023-07-09T09:10:12;101949.50;;;30.13;47.15
74594;BME280;63097;51.872;4.460;2023-07-09T09:12:48;101941.25;;;30.00;47.13
74594;BME280;63097;51.872;4.460;2023-07-09T09:15:18;101941.75;;;30.38;46.23
74594;BME280;63097;51.872;4.460;2023-07-09T09:17:50;101941.84;;;30.65;45.56
74594;BME280;63097;51.872;4.460;2023-07-09T09:20:20;101931.09;;;30.26;45.83
74594;BME280;63097;51.872;4.460;2023-07-09T09:22:54;101924.06;;;30.36;45.27
74594;BME280;63097;51.872;4.460;2023-07-09T09:25:27;101932.66;;;30.36;45.46
74594;BME280;63097;51.872;4.460;2023-07-09T09:27:53;101926.53;;;30.25;46.06
74594;BME280;63097;51.872;4.460;2023-07-09T09:30:21;101929.44;;;30.37;45.35
74594;BME280;63097;51.872;4.460;2023-07-09T09:32:53;101926.44;;;30.34;45.30
74594;BME280;63097;51.872;4.460;2023-07-09T09:35:26;101937.53;;;30.47;45.40
74594;BME280;63097;51.872;4.460;2023-07-09T09:37:56;101947.06;;;30.76;46.16
74594;BME280;63097;51.872;4.460;2023-07-09T09:40:24;101951.84;;;30.72;44.99
74594;BME280;63097;51.872;4.460;2023-07-09T09:42:51;101958.94;;;30.14;45.32
74594;BME280;63097;51.872;4.460;2023-07-09T09:45:19;101957.91;;;30.54;45.15
74594;BME280;63097;51.872;4.460;2023-07-09T09:47:46;101954.47;;;29.80;46.28
74594;BME280;63097;51.872;4.460;2023-07-09T09:50:16;101960.06;;;30.33;45.02
74594;BME280;63097;51.872;4.460;2023-07-09T09:52:43;101962.78;;;30.42;46.25
74594;BME280;63097;51.872;4.460;2023-07-09T09:55:20;101952.03;;;31.03;45.24
74594;BME280;63097;51.872;4.460;2023-07-09T09:57:52;101956.97;;;31.57;42.39
74594;BME280;63097;51.872;4.460;2023-07-09T10:00:21;101953.75;;;31.59;42.54
74594;BME280;63097;51.872;4.460;2023-07-09T10:02:46;101956.56;;;32.18;41.81
74594;BME280;63097;51.872;4.460;2023-07-09T10:05:15;101947.56;;;32.50;40.82
74594;BME280;63097;51.872;4.460;2023-07-09T10:11:28;101946.00;;;33.07;40.08
74594;BME280;63097;51.872;4.460;2023-07-09T10:13:55;101939.53;;;33.51;38.82
74594;BME280;63097;51.872;4.460;2023-07-09T10:16:29;101942.25;;;33.44;40.06
74594;BME280;63097;51.872;4.460;2023-07-09T10:19:16;101955.31;;;32.15;41.73
74594;BME280;63097;51.872;4.460;2023-07-09T10:21:54;101952.03;;;32.48;40.23
74594;BME280;63097;51.872;4.460;2023-07-09T10:27:23;101960.91;;;32.74;39.59
74594;BME280;63097;51.872;4.460;2023-07-09T10:33:08;101988.44;;;32.40;41.60
74594;BME280;63097;51.872;4.460;2023-07-09T10:35:38;101996.16;;;32.36;41.82
74594;BME280;63097;51.872;4.460;2023-07-09T10:38:21;101997.34;;;32.20;40.68
74594;BME280;63097;51.872;4.460;2023-07-09T10:40:59;101990.41;;;32.87;40.45
74594;BME280;63097;51.872;4.460;2023-07-09T10:43:36;102011.84;;;33.59;38.70
74594;BME280;63097;51.872;4.460;2023-07-09T10:46:05;102003.69;;;32.41;40.05
74594;BME280;63097;51.872;4.460;2023-07-09T10:48:41;101995.69;;;31.60;41.31
74594;BME280;63097;51.872;4.460;2023-07-09T10:51:17;101993.94;;;32.45;40.37
74594;BME280;63097;51.872;4.460;2023-07-09T10:53:58;101994.66;;;33.08;38.72
74594;BME280;63097;51.872;4.460;2023-07-09T10:56:27;101997.31;;;32.82;39.41
74594;BME280;63097;51.872;4.460;2023-07-09T10:59:01;101997.19;;;32.60;39.91
74594;BME280;63097;51.872;4.460;2023-07-09T11:01:41;101995.19;;;32.79;39.99
74594;BME280;63097;51.872;4.460;2023-07-09T11:04:26;102000.00;;;32.91;39.72
74594;BME280;63097;51.872;4.460;2023-07-09T11:06:56;102001.81;;;32.33;39.31
74594;BME280;63097;51.872;4.460;2023-07-09T11:09:27;101997.22;;;31.85;42.15
74594;BME280;63097;51.872;4.460;2023-07-09T11:11:58;101996.63;;;32.07;41.45
74594;BME280;63097;51.872;4.460;2023-07-09T11:15:29;102006.66;;;31.70;41.44
74594;BME280;63097;51.872;4.460;2023-07-09T11:17:28;102008.56;;;31.50;42.01
74594;BME280;63097;51.872;4.460;2023-07-09T11:20:00;102021.22;;;31.22;43.19
74594;BME280;63097;51.872;4.460;2023-07-09T11:22:35;102024.13;;;31.10;42.93
74594;BME280;63097;51.872;4.460;2023-07-09T11:25:12;102034.03;;;31.36;45.35
74594;BME280;63097;51.872;4.460;2023-07-09T11:28:05;102026.16;;;33.17;39.20
74594;BME280;63097;51.872;4.460;2023-07-09T11:30:33;102045.00;;;34.06;38.72
74594;BME280;63097;51.872;4.460;2023-07-09T11:33:01;102049.09;;;34.73;34.86
74594;BME280;63097;51.872;4.460;2023-07-09T11:35:29;102052.38;;;35.50;34.14
74594;BME280;63097;51.872;4.460;2023-07-09T11:37:55;102059.75;;;34.92;35.76
74594;BME280;63097;51.872;4.460;2023-07-09T11:40:23;102058.06;;;34.65;35.03
74594;BME280;63097;51.872;4.460;2023-07-09T11:42:54;102049.09;;;33.29;37.82
74594;BME280;63097;51.872;4.460;2023-07-09T11:45:27;102040.09;;;32.96;39.68
74594;BME280;63097;51.872;4.460;2023-07-09T11:48:01;102057.88;;;31.92;42.41
74594;BME280;63097;51.872;4.460;2023-07-09T11:50:35;102053.53;;;30.91;43.12
74594;BME280;63097;51.872;4.460;2023-07-09T11:53:08;102056.31;;;30.19;45.24
74594;BME280;63097;51.872;4.460;2023-07-09T11:55:43;102062.81;;;29.62;46.82
74594;BME280;63097;51.872;4.460;2023-07-09T11:58:18;102059.53;;;29.52;47.25
74594;BME280;63097;51.872;4.460;2023-07-09T12:00:46;102051.31;;;29.30;48.10
74594;BME280;63097;51.872;4.460;2023-07-09T12:03:19;102053.59;;;29.16;47.90
74594;BME280;63097;51.872;4.460;2023-07-09T12:05:51;102064.03;;;29.20;48.42
74594;BME280;63097;51.872;4.460;2023-07-09T12:08:17;102069.47;;;29.13;47.81
74594;BME280;63097;51.872;4.460;2023-07-09T12:10:44;102072.53;;;29.49;46.71
74594;BME280;63097;51.872;4.460;2023-07-09T12:13:11;102068.28;;;29.35;46.94
74594;BME280;63097;51.872;4.460;2023-07-09T12:15:38;102066.97;;;29.12;48.61
74594;BME280;63097;51.872;4.460;2023-07-09T12:18:11;102045.44;;;28.77;50.48
74594;BME280;63097;51.872;4.460;2023-07-09T12:20:37;102057.25;;;28.75;50.60
74594;BME280;63097;51.872;4.460;2023-07-09T12:23:11;102064.44;;;27.97;53.25
74594;BME280;63097;51.872;4.460;2023-07-09T12:25:47;102041.78;;;27.49;54.58
74594;BME280;63097;51.872;4.460;2023-07-09T12:28:14;102039.25;;;26.88;57.17
74594;BME280;63097;51.872;4.460;2023-07-09T12:30:45;102047.75;;;26.71;57.76
74594;BME280;63097;51.872;4.460;2023-07-09T12:33:16;102053.25;;;26.20;59.18
74594;BME280;63097;51.872;4.460;2023-07-09T12:35:42;102064.69;;;25.98;60.16
74594;BME280;63097;51.872;4.460;2023-07-09T12:38:28;102067.25;;;25.77;61.20
74594;BME280;63097;51.872;4.460;2023-07-09T12:40:55;102060.44;;;26.09;60.59
74594;BME280;63097;51.872;4.460;2023-07-09T12:43:31;102063.66;;;26.55;57.86
74594;BME280;63097;51.872;4.460;2023-07-09T12:45:59;102049.91;;;26.18;59.17
74594;BME280;63097;51.872;4.460;2023-07-09T12:48:27;102058.44;;;25.87;60.27
74594;BME280;63097;51.872;4.460;2023-07-09T12:50:56;102061.63;;;25.63;60.43
74594;BME280;63097;51.872;4.460;2023-07-09T12:53:23;102060.44;;;25.42;61.33
74594;BME280;63097;51.872;4.460;2023-07-09T12:55:49;102055.00;;;25.32;61.34
74594;BME280;63097;51.872;4.460;2023-07-09T12:58:20;102037.25;;;25.35;62.42
74594;BME280;63097;51.872;4.460;2023-07-09T13:00:51;102030.66;;;26.01;59.73
74594;BME280;63097;51.872;4.460;2023-07-09T13:03:18;102016.94;;;26.42;57.98
74594;BME280;63097;51.872;4.460;2023-07-09T13:05:52;102025.41;;;26.17;58.11
74594;BME280;63097;51.872;4.460;2023-07-09T13:08:17;102032.09;;;26.12;59.29
74594;BME280;63097;51.872;4.460;2023-07-09T13:10:43;102030.72;;;27.39;55.33